Time;durP1;ratioP1;P1;durP2;ratioP2;P2;SDS_P1;SDS_P2;PMS_P1;PMS_P2;Temp;Humidity;BMP_temperature;BMP_pressure;BME280_temperature;BME280_humidity;BME280_pressure;Samples;Min_cycle;Max_cycle;Signal;HPM_P1;HPM_P2
2021/11/08 00:01:19;;;;;;;26.98;7.78;;;;;;;7.89;78.38;100035.22;5025652;28;20112;-71
2021/11/08 00:03:46;;;;;;;28.20;7.75;;;;;;;7.87;78.65;100030.94;5026464;28;20103;-70
2021/11/08 00:06:12;;;;;;;24.35;7.28;;;;;;;7.87;79.18;100037.03;5026405;28;20045;-70
2021/11/08 00:08:38;;;;;;;37.85;9.80;;;;;;;7.90;78.90;100038.72;5026488;28;20037;-70
2021/11/08 00:11:04;;;;;;;34.85;8.70;;;;;;;7.93;78.88;100044.72;5025273;28;20029;-69
2021/11/08 00:13:30;;;;;;;26.98;8.07;;;;;;;7.93;79.58;100042.09;5026466;28;20045;-69
2021/11/08 00:18:40;;;;;;;20.67;7.60;;;;;;;8.02;78.57;100046.16;5031332;28;20033;-69
2021/11/08 00:21:05;;;;;;;22.58;7.80;;;;;;;8.02;77.78;100040.91;5034735;28;20041;-69
2021/11/08 00:23:31;;;;;;;32.03;8.63;;;;;;;8.06;78.25;100044.31;5041088;28;20509;-68
2021/11/08 00:25:57;;;;;;;26.98;8.35;;;;;;;8.02;78.02;100040.06;5041099;28;20037;-69
2021/11/08 00:28:25;;;;;;;25.70;7.47;;;;;;;8.03;78.42;100031.28;5040433;28;20034;-69
2021/11/08 00:30:52;;;;;;;18.42;6.25;;;;;;;8.05;77.96;100029.44;5038532;28;20034;-69
2021/11/08 00:33:19;;;;;;;29.77;7.22;;;;;;;8.03;77.86;100034.78;5032438;28;20025;-70
2021/11/08 00:35:50;;;;;;;27.23;8.60;;;;;;;8.06;78.38;100026.78;5025005;28;20132;-70
2021/11/08 00:38:17;;;;;;;22.58;8.00;;;;;;;8.04;77.84;100022.50;5025922;28;20041;-69
2021/11/08 00:40:44;;;;;;;32.63;7.88;;;;;;;8.01;78.45;100022.59;5021026;28;20045;-69
2021/11/08 00:43:10;;;;;;;30.35;8.95;;;;;;;7.98;77.37;100026.19;5022021;28;20091;-71
2021/11/08 00:45:36;;;;;;;39.58;11.15;;;;;;;7.94;77.80;100022.81;5023400;28;20536;-70
2021/11/08 00:48:03;;;;;;;32.33;11.48;;;;;;;7.95;77.86;100023.69;5025178;28;20061;-70
2021/11/08 00:50:28;;;;;;;19.65;7.80;;;;;;;7.98;77.99;100033.22;5025361;28;20033;-70
2021/11/08 00:52:54;;;;;;;32.40;7.90;;;;;;;7.99;78.54;100040.19;5026425;28;20899;-70
2021/11/08 00:55:22;;;;;;;30.77;11.07;;;;;;;7.98;77.78;100035.84;5025358;28;20911;-69
2021/11/08 00:57:48;;;;;;;25.77;7.40;;;;;;;7.95;77.70;100023.69;5026051;28;20059;-69
2021/11/08 01:00:18;;;;;;;28.85;7.70;;;;;;;7.95;77.37;100031.56;5023945;28;20053;-69
2021/11/08 01:02:44;;;;;;;22.17;7.03;;;;;;;7.92;77.74;100023.78;5024692;28;20040;-69
2021/11/08 01:05:13;;;;;;;30.48;6.97;;;;;;;7.89;77.78;100029.13;5026581;28;20489;-69
2021/11/08 01:07:38;;;;;;;21.63;7.22;;;;;;;7.83;77.65;100027.59;5029075;28;20480;-69
2021/11/08 01:10:06;;;;;;;22.83;7.25;;;;;;;7.77;78.11;100034.78;5029006;28;20108;-69
2021/11/08 01:12:32;;;;;;;30.10;8.15;;;;;;;7.73;77.67;100037.53;5029236;28;20121;-70
2021/11/08 01:14:57;;;;;;;16.50;7.15;;;;;;;7.71;78.17;100044.59;5029910;28;20108;-68
2021/11/08 01:17:23;;;;;;;23.67;7.22;;;;;;;7.65;78.05;100052.66;5029767;28;20041;-69
2021/11/08 01:19:51;;;;;;;21.83;7.25;;;;;;;7.62;78.11;100052.75;5029108;28;20040;-69
2021/11/08 01:22:18;;;;;;;31.88;7.47;;;;;;;7.57;78.46;100053.81;5029259;28;20501;-69
2021/11/08 01:24:56;;;;;;;24.10;7.20;;;;;;;7.57;78.92;100059.06;5029905;28;20041;-70
2021/11/08 01:30:00;;;;;;;25.65;6.57;;;;;;;7.59;78.47;100059.88;5029151;28;20110;-69
2021/11/08 01:32:25;;;;;;;26.42;8.73;;;;;;;7.61;78.48;100064.19;5029690;28;20056;-69
2021/11/08 01:34:51;;;;;;;28.08;8.48;;;;;;;7.63;78.42;100066.72;5029118;28;20504;-69
2021/11/08 01:37:18;;;;;;;21.02;6.85;;;;;;;7.63;78.67;100066.72;5029008;28;20091;-69
2021/11/08 01:39:44;;;;;;;24.75;7.63;;;;;;;7.63;78.37;100064.09;5029413;28;20117;-69
2021/11/08 01:42:11;;;;;;;27.30;8.60;;;;;;;7.63;78.30;100058.84;5028911;28;20033;-69
2021/11/08 01:44:38;;;;;;;23.95;8.13;;;;;;;7.65;78.02;100063.16;5028832;28;20477;-69
2021/11/08 01:47:04;;;;;;;23.48;7.80;;;;;;;7.66;78.35;100053.53;5028711;28;20441;-69
2021/11/08 01:49:31;;;;;;;27.73;9.02;;;;;;;7.69;78.05;100058.69;5028714;28;20052;-69
2021/11/08 01:51:58;;;;;;;27.25;10.02;;;;;;;7.70;78.59;100063.00;5028562;28;20047;-69
2021/11/08 01:54:25;;;;;;;15.00;7.38;;;;;;;7.72;77.99;100059.41;5024743;28;20058;-69
2021/11/08 01:56:52;;;;;;;29.75;7.38;;;;;;;7.74;78.16;100056.75;5028458;28;20759;-69
2021/11/08 01:59:19;;;;;;;27.20;9.65;;;;;;;7.76;78.13;100065.44;5028658;28;20048;-69
2021/11/08 02:01:45;;;;;;;27.98;8.30;;;;;;;7.74;77.75;100059.38;5003989;28;20057;-70
2021/11/08 02:04:11;;;;;;;24.55;7.32;;;;;;;7.74;77.99;100056.75;5029860;28;20064;-70
2021/11/08 02:06:36;;;;;;;30.73;9.30;;;;;;;7.74;78.00;100054.13;5029082;28;20084;-69
2021/11/08 02:09:03;;;;;;;24.30;7.93;;;;;;;7.74;78.20;100049.72;5028575;28;20080;-69
2021/11/08 02:11:35;;;;;;;26.85;8.93;;;;;;;7.75;77.90;100061.09;5026707;28;20513;-70
2021/11/08 02:14:01;;;;;;;30.15;9.77;;;;;;;7.74;78.64;100056.75;5025829;28;20045;-70
2021/11/08 02:16:26;;;;;;;24.77;8.68;;;;;;;7.79;77.94;100061.84;5028643;28;20068;-69
2021/11/08 02:18:52;;;;;;;29.50;10.27;;;;;;;7.79;77.66;100060.09;5029060;28;20044;-69
2021/11/08 02:21:18;;;;;;;34.53;9.25;;;;;;;7.79;77.82;100057.47;5027861;28;20116;-70
2021/11/08 02:23:48;;;;;;;30.38;8.50;;;;;;;7.79;77.86;100049.59;5028392;28;20067;-70
2021/11/08 02:26:17;;;;;;;23.25;7.60;;;;;;;7.80;77.84;100050.44;5030741;28;20717;-70
2021/11/08 02:28:48;;;;;;;26.10;9.48;;;;;;;7.81;77.88;100055.66;5029389;28;20064;-69
2021/11/08 02:31:17;;;;;;;23.15;7.75;;;;;;;7.83;78.13;100058.22;5028139;28;20083;-70
2021/11/08 02:33:44;;;;;;;23.70;8.90;;;;;;;7.81;77.63;100058.25;5028649;28;20038;-70
2021/11/08 02:36:10;;;;;;;36.20;9.85;;;;;;;7.82;77.30;100059.97;5029462;28;20390;-70
2021/11/08 02:38:40;;;;;;;19.40;8.23;;;;;;;7.84;77.58;100066.03;5028261;28;20493;-70
2021/11/08 02:41:06;;;;;;;24.25;7.90;;;;;;;7.86;78.09;100064.22;5027147;28;20053;-70
2021/11/08 02:43:31;;;;;;;24.38;9.45;;;;;;;7.85;77.79;100064.25;5027871;28;20730;-69
2021/11/08 02:48:33;;;;;;;22.30;7.00;;;;;;;7.79;77.84;100064.47;5027352;28;20041;-70
2021/11/08 02:51:15;;;;;;;25.15;8.45;;;;;;;7.81;77.72;100062.66;5027164;28;20086;-69
2021/11/08 02:53:42;;;;;;;17.83;7.20;;;;;;;7.82;77.67;100061.75;5030703;28;20587;-69
2021/11/08 02:56:09;;;;;;;28.48;9.77;;;;;;;7.80;77.69;100060.94;5028297;28;20049;-71
2021/11/08 02:58:37;;;;;;;26.95;8.25;;;;;;;7.81;77.88;100073.16;5031818;28;20037;-70
2021/11/08 03:01:04;;;;;;;29.23;7.82;;;;;;;7.82;77.71;100064.38;5029968;28;20688;-70
2021/11/08 03:03:36;;;;;;;27.67;11.13;;;;;;;7.82;77.38;100067.84;5030206;28;20148;-70
2021/11/08 03:06:10;;;;;;;25.42;8.40;;;;;;;7.81;77.81;100074.00;5028968;28;20044;-71
2021/11/08 03:08:35;;;;;;;21.30;8.32;;;;;;;7.78;78.07;100066.25;5027454;28;20579;-70
2021/11/08 03:11:02;;;;;;;24.67;10.10;;;;;;;7.79;77.37;100067.94;5026821;28;20037;-70
2021/11/08 03:13:27;;;;;;;26.80;9.00;;;;;;;7.85;77.95;100074.75;5027053;28;20045;-71
2021/11/08 03:16:00;;;;;;;31.85;10.45;;;;;;;7.85;77.81;100074.75;5027513;28;20038;-71
2021/11/08 03:18:33;;;;;;;21.75;7.63;;;;;;;7.88;77.13;100079.94;5026935;28;20037;-70
2021/11/08 03:20:59;;;;;;;28.60;9.25;;;;;;;7.85;77.03;100075.63;5025301;28;20035;-70
2021/11/08 03:23:27;;;;;;;23.80;9.00;;;;;;;7.83;77.34;100074.81;5027602;28;20404;-70
2021/11/08 03:26:02;;;;;;;26.65;10.02;;;;;;;7.84;77.06;100066.03;5026864;28;20034;-70
2021/11/08 03:28:28;;;;;;;27.15;8.13;;;;;;;7.85;76.72;100065.13;5026581;28;20499;-71
2021/11/08 03:30:56;;;;;;;48.78;10.25;;;;;;;7.84;77.20;100071.28;5026264;28;20037;-71
2021/11/08 03:33:23;;;;;;;26.00;9.02;;;;;;;7.85;77.19;100074.75;5009624;28;20111;-70
2021/11/08 03:35:49;;;;;;;35.88;9.23;;;;;;;7.81;77.09;100066.13;5026712;28;20496;-70
2021/11/08 03:38:16;;;;;;;29.42;10.95;;;;;;;7.78;77.17;100065.38;5026888;28;20033;-71
2021/11/08 03:40:44;;;;;;;29.27;10.40;;;;;;;7.78;77.48;100062.75;5026124;28;20419;-70
2021/11/08 03:43:12;;;;;;;31.77;11.45;;;;;;;7.77;77.12;100064.50;5024938;28;20034;-70
2021/11/08 03:45:39;;;;;;;37.15;9.70;;;;;;;7.77;76.97;100069.75;5024176;28;20065;-70
2021/11/08 03:48:07;;;;;;;27.02;10.05;;;;;;;7.74;77.44;100065.47;5023520;28;20037;-70
2021/11/08 03:50:33;;;;;;;25.65;9.57;;;;;;;7.78;76.92;100079.38;5021110;28;20065;-70
2021/11/08 03:52:59;;;;;;;28.15;10.27;;;;;;;7.79;76.73;100072.34;5025028;28;20081;-70
2021/11/08 03:55:25;;;;;;;25.20;9.30;;;;;;;7.72;77.25;100077.78;5026116;28;20041;-70
2021/11/08 03:57:52;;;;;;;38.65;9.60;;;;;;;7.77;77.44;100075.00;5026555;28;20688;-70
2021/11/08 04:00:20;;;;;;;41.13;11.32;;;;;;;7.78;76.96;100084.63;5025369;28;20076;-70
2021/11/08 04:02:46;;;;;;;30.30;8.55;;;;;;;7.77;76.67;100079.41;5026105;28;20033;-71
2021/11/08 04:05:14;;;;;;;20.05;8.48;;;;;;;7.83;76.96;100081.84;5025306;28;20091;-70
2021/11/08 04:07:40;;;;;;;29.58;8.13;;;;;;;7.82;76.32;100086.22;5026203;28;20049;-70
2021/11/08 04:10:09;;;;;;;32.55;9.98;;;;;;;7.78;76.22;100089.00;5024787;28;20408;-70
2021/11/08 04:12:35;;;;;;;19.77;8.18;;;;;;;7.76;77.15;100086.44;5026479;28;20037;-70
2021/11/08 04:15:02;;;;;;;28.30;9.02;;;;;;;7.77;76.77;100089.91;5026378;28;20037;-70
2021/11/08 04:17:28;;;;;;;19.77;8.32;;;;;;;7.79;77.15;100093.34;5026158;28;20041;-70
2021/11/08 04:19:55;;;;;;;37.15;10.00;;;;;;;7.78;77.64;100095.13;5026490;28;20034;-70
2021/11/08 04:22:20;;;;;;;29.90;10.93;;;;;;;7.77;77.75;100096.00;5025076;28;20120;-70
2021/11/08 04:24:47;;;;;;;23.67;10.57;;;;;;;7.80;76.91;100090.69;5026258;28;20557;-69
2021/11/08 04:27:14;;;;;;;25.55;10.52;;;;;;;7.78;77.18;100095.13;5026322;28;20038;-70
2021/11/08 04:29:41;;;;;;;28.33;10.23;;;;;;;7.80;76.91;100095.94;5024461;28;20041;-69
2021/11/08 04:32:08;;;;;;;29.52;9.93;;;;;;;7.80;77.41;100095.06;5025362;28;20033;-70
2021/11/08 04:34:46;;;;;;;32.70;12.55;;;;;;;7.83;77.12;100103.69;5025949;28;20072;-70
2021/11/08 04:37:45;;;;;;;25.98;8.13;;;;;;;7.83;77.00;100101.06;5026204;28;20053;-71
2021/11/08 04:50:19;;;;;;;26.40;8.90;;;;;;;7.71;77.04;100114.59;5029813;28;20034;-71
2021/11/08 04:55:50;;;;;;;27.13;9.75;;;;;;;7.63;76.48;100106.09;5029752;28;20095;-70
2021/11/08 05:27:51;;;;;;;32.08;9.85;;;;;;;7.68;76.28;100117.31;5029691;28;20113;-70
2021/11/08 05:30:40;;;;;;;29.70;10.27;;;;;;;7.63;76.81;100125.34;5029105;28;20061;-70
2021/11/08 05:33:06;;;;;;;38.30;12.00;;;;;;;7.62;76.75;100117.50;5030623;28;20088;-71
2021/11/08 05:35:33;;;;;;;37.90;12.02;;;;;;;7.59;77.45;100131.59;5028994;28;20080;-71
2021/11/08 05:37:59;;;;;;;25.17;9.95;;;;;;;7.62;77.46;100131.47;5027986;28;20025;-71
2021/11/08 05:40:34;;;;;;;28.88;10.20;;;;;;;7.61;76.99;100134.16;5029219;28;20052;-71
2021/11/08 05:43:06;;;;;;;29.77;9.88;;;;;;;7.59;77.10;100136.81;5029014;28;20382;-69
2021/11/08 05:45:33;;;;;;;28.63;8.80;;;;;;;7.66;76.88;100132.25;5027552;28;20041;-70
2021/11/08 05:47:59;;;;;;;29.85;9.98;;;;;;;7.61;76.59;100134.16;5028936;28;20029;-71
2021/11/08 05:50:24;;;;;;;34.35;9.98;;;;;;;7.61;76.56;100137.66;5027722;28;20038;-70
2021/11/08 05:52:52;;;;;;;28.30;8.73;;;;;;;7.62;76.58;100149.00;5028260;28;20041;-71
2021/11/08 05:55:20;;;;;;;24.02;9.55;;;;;;;7.60;76.58;100153.44;5028983;28;20084;-71
2021/11/08 05:58:06;;;;;;;18.85;8.05;;;;;;;7.66;77.02;100153.25;5029225;28;20038;-71
2021/11/08 06:49:50;;;;;;;26.15;8.68;;;;;;;7.25;77.25;100189.44;5027651;28;20044;-69
2021/11/08 06:52:17;;;;;;;29.02;10.57;;;;;;;7.21;77.74;100187.81;5027113;28;20033;-69
2021/11/08 06:54:44;;;;;;;33.90;11.20;;;;;;;7.19;77.71;100187.88;5028128;28;20040;-70
2021/11/08 06:57:13;;;;;;;35.70;9.38;;;;;;;7.17;77.35;100186.19;5027670;28;20030;-71
2021/11/08 06:59:40;;;;;;;27.10;8.88;;;;;;;7.18;77.54;100190.53;5027880;28;20033;-70
2021/11/08 07:02:06;;;;;;;30.30;10.55;;;;;;;7.18;77.73;100188.75;5024253;28;20044;-70
2021/11/08 07:04:31;;;;;;;33.78;10.55;;;;;;;7.17;77.50;100189.66;5027879;28;20124;-70
2021/11/08 07:06:57;;;;;;;27.25;9.82;;;;;;;7.09;77.64;100192.53;5026942;28;20109;-70
2021/11/08 07:09:25;;;;;;;22.17;8.60;;;;;;;7.12;77.51;100198.59;5028203;28;20060;-70
2021/11/08 07:11:51;;;;;;;20.10;8.57;;;;;;;7.13;77.86;100197.66;5026856;28;20041;-70
2021/11/08 07:14:17;;;;;;;29.48;10.55;;;;;;;7.12;77.47;100204.69;5006799;28;20064;-70
2021/11/08 07:16:44;;;;;;;28.65;10.10;;;;;;;7.12;77.40;100209.91;5028043;28;20684;-70
2021/11/08 07:19:11;;;;;;;29.50;9.68;;;;;;;7.13;77.58;100205.53;5028537;28;20076;-70
2021/11/08 07:21:37;;;;;;;40.67;10.93;;;;;;;7.08;77.88;100211.75;5028235;28;20048;-70
2021/11/08 07:24:02;;;;;;;27.10;8.80;;;;;;;7.11;77.48;100213.44;5028543;28;20030;-71
2021/11/08 07:26:28;;;;;;;33.72;10.85;;;;;;;7.15;77.98;100212.44;5026953;28;20452;-71
2021/11/08 07:28:53;;;;;;;22.15;8.60;;;;;;;7.18;77.29;100219.38;5028349;28;20068;-70
2021/11/08 07:31:19;;;;;;;25.67;9.40;;;;;;;7.19;77.21;100227.19;5024639;28;20168;-70
2021/11/08 07:33:44;;;;;;;21.55;9.80;;;;;;;7.20;77.38;100228.91;5000816;28;20038;-70
2021/11/08 07:36:09;;;;;;;27.52;9.10;;;;;;;7.22;77.01;100223.63;5027572;28;20072;-71
2021/11/08 07:38:35;;;;;;;34.95;16.85;;;;;;;7.27;77.20;100226.97;5038682;28;20033;-70
2021/11/08 07:41:03;;;;;;;32.45;11.43;;;;;;;7.31;76.93;100236.50;5027993;28;20034;-71
2021/11/08 07:43:29;;;;;;;28.73;9.07;;;;;;;7.37;76.55;100243.31;5027281;28;20039;-70
2021/11/08 07:45:54;;;;;;;30.45;10.40;;;;;;;7.39;76.29;100234.50;5026340;28;20092;-71
2021/11/08 07:48:23;;;;;;;28.20;8.55;;;;;;;7.41;76.10;100242.31;5025968;28;20059;-71
2021/11/08 07:50:49;;;;;;;26.10;8.90;;;;;;;7.46;76.25;100240.44;5025473;28;20036;-70
2021/11/08 07:53:16;;;;;;;33.40;10.18;;;;;;;7.47;75.72;100242.13;5026971;28;20766;-70
2021/11/08 07:55:42;;;;;;;21.50;8.63;;;;;;;7.46;76.06;100246.53;5025545;28;20061;-70
2021/11/08 07:58:07;;;;;;;26.60;9.55;;;;;;;7.49;76.13;100249.06;5028456;28;20064;-69
2021/11/08 08:00:35;;;;;;;26.60;8.82;;;;;;;7.52;76.23;100251.59;5027050;28;20036;-70
2021/11/08 08:03:01;;;;;;;22.33;8.57;;;;;;;7.53;75.67;100250.69;5025668;28;20037;-71
2021/11/08 08:05:27;;;;;;;33.50;10.90;;;;;;;7.53;75.59;100242.81;5025933;28;20038;-71
2021/11/08 08:07:52;;;;;;;30.27;10.05;;;;;;;7.55;75.47;100252.41;5024329;28;20555;-72
2021/11/08 08:10:17;;;;;;;26.52;9.40;;;;;;;7.52;75.29;100262.06;5026151;28;20064;-72
2021/11/08 08:12:43;;;;;;;22.92;9.63;;;;;;;7.56;75.29;100256.78;5024886;28;20034;-73
2021/11/08 08:15:08;;;;;;;25.80;9.13;;;;;;;7.60;75.67;100261.00;5025562;28;20041;-73
2021/11/08 08:17:38;;;;;;;24.63;9.25;;;;;;;7.57;75.34;100259.31;5027321;28;20596;-72
2021/11/08 08:20:07;;;;;;;27.45;11.05;;;;;;;7.55;74.94;100265.53;5025490;28;20029;-71
2021/11/08 08:22:32;;;;;;;28.17;9.35;;;;;;;7.55;75.47;100260.28;5026267;28;20148;-71
2021/11/08 08:24:58;;;;;;;31.23;10.68;;;;;;;7.60;75.51;100266.25;5025529;28;20536;-72
2021/11/08 08:27:23;;;;;;;24.80;10.10;;;;;;;7.70;75.13;100263.31;5027545;28;20446;-72
2021/11/08 08:29:51;;;;;;;23.27;8.65;;;;;;;7.75;75.23;100255.28;5027579;28;20121;-72
2021/11/08 08:32:17;;;;;;;30.50;9.13;;;;;;;7.83;74.60;100260.34;5028007;28;20127;-71
2021/11/08 08:34:43;;;;;;;25.50;10.23;;;;;;;7.90;74.45;100265.34;5030756;28;20033;-72
2021/11/08 08:37:08;;;;;;;28.27;8.68;;;;;;;7.96;74.49;100270.41;5032135;28;20052;-73
2021/11/08 08:39:34;;;;;;;28.05;8.65;;;;;;;8.05;74.25;100282.41;5016284;28;20120;-72
2021/11/08 08:42:00;;;;;;;21.77;8.25;;;;;;;8.17;73.92;100273.25;5015863;28;20617;-74
2021/11/08 08:44:25;;;;;;;24.45;8.98;;;;;;;8.29;73.36;100269.38;5023102;28;20459;-75
2021/11/08 08:46:50;;;;;;;22.65;10.07;;;;;;;8.68;71.42;100275.13;5020233;28;20049;-73
2021/11/08 08:49:17;;;;;;;32.22;10.55;;;;;;;9.55;68.48;100265.94;5021354;28;20055;-73
2021/11/08 08:51:43;;;;;;;26.48;9.35;;;;;;;10.32;66.37;100269.09;5020699;28;20025;-73
2021/11/08 08:54:10;;;;;;;25.42;9.95;;;;;;;11.07;64.50;100258.94;5021541;28;20051;-74
2021/11/08 08:56:36;;;;;;;29.20;9.13;;;;;;;11.85;61.26;100258.06;5020141;28;20396;-74
2021/11/08 08:59:03;;;;;;;23.55;9.85;;;;;;;12.48;59.56;100256.84;5021802;28;20045;-74
2021/11/08 09:01:29;;;;;;;34.40;10.93;;;;;;;12.88;56.98;100256.53;5020967;28;20030;-71
2021/11/08 09:03:56;;;;;;;23.98;9.90;;;;;;;13.27;56.27;100259.91;5020054;28;20041;-72
2021/11/08 09:06:23;;;;;;;29.08;9.18;;;;;;;13.61;55.50;100266.91;5002216;28;20041;-72
2021/11/08 09:08:50;;;;;;;39.45;10.85;;;;;;;14.00;54.49;100270.06;5019399;28;20048;-70
2021/11/08 09:11:16;;;;;;;21.88;10.23;;;;;;;14.24;52.69;100278.44;5021619;28;20021;-71
2021/11/08 09:13:41;;;;;;;29.85;11.27;;;;;;;14.30;52.09;100271.00;5021796;28;20052;-72
2021/11/08 09:16:11;;;;;;;27.13;9.70;;;;;;;14.32;51.90;100279.75;5020986;28;20559;-71
2021/11/08 09:18:42;;;;;;;32.38;10.02;;;;;;;14.51;51.55;100278.69;5021950;28;20416;-71
2021/11/08 09:21:10;;;;;;;26.83;9.57;;;;;;;14.65;50.81;100283.22;5023237;28;20116;-71
2021/11/08 09:23:36;;;;;;;24.30;9.00;;;;;;;14.85;50.99;100282.06;5024004;28;20538;-72
2021/11/08 09:26:02;;;;;;;21.75;8.70;;;;;;;15.13;49.77;100287.41;5025479;28;20065;-72
2021/11/08 09:28:29;;;;;;;27.02;10.55;;;;;;;15.32;49.56;100295.13;5025410;28;20171;-72
2021/11/08 09:30:54;;;;;;;32.50;9.82;;;;;;;15.53;48.94;100289.44;5022496;28;20025;-71
2021/11/08 09:33:20;;;;;;;29.45;9.32;;;;;;;15.71;48.36;100288.34;5025464;28;20574;-71
2021/11/08 09:35:49;;;;;;;28.33;12.43;;;;;;;15.92;47.82;100294.09;5007228;28;20120;-72
2021/11/08 09:38:16;;;;;;;27.48;10.27;;;;;;;16.20;47.04;100298.53;5024537;28;20033;-72
2021/11/08 09:40:43;;;;;;;27.63;9.75;;;;;;;16.32;47.02;100302.22;5018727;28;20124;-72
2021/11/08 09:43:14;;;;;;;23.27;9.65;;;;;;;16.46;46.74;100287.97;5022285;28;20112;-72
2021/11/08 09:45:42;;;;;;;29.88;10.40;;;;;;;16.50;46.00;100295.66;5024063;28;20037;-72
2021/11/08 09:48:11;;;;;;;21.92;9.80;;;;;;;16.60;46.82;100293.25;5025043;28;20092;-71
2021/11/08 09:50:39;;;;;;;21.70;9.52;;;;;;;16.83;46.19;100288.25;4990582;28;20026;-71
2021/11/08 09:53:06;;;;;;;23.65;9.18;;;;;;;16.96;45.13;100286.47;5005056;28;20033;-71
2021/11/08 09:55:32;;;;;;;18.00;8.65;;;;;;;16.87;45.35;100295.91;5002848;28;20072;-72
2021/11/08 09:58:00;;;;;;;24.70;9.73;;;;;;;16.94;44.84;100296.38;5004882;28;20064;-73
2021/11/08 10:00:41;;;;;;;21.85;10.27;;;;;;;16.95;45.22;100292.75;5000357;28;20037;-72
2021/11/08 10:03:16;;;;;;;28.65;10.05;;;;;;;17.06;45.22;100294.69;5004324;28;20045;-71
2021/11/08 10:05:46;;;;;;;23.70;11.05;;;;;;;16.93;45.43;100292.84;5004673;28;20034;-72
2021/11/08 10:08:13;;;;;;;25.30;10.13;;;;;;;16.64;45.73;100296.59;5004191;28;20046;-72
2021/11/08 10:10:39;;;;;;;25.30;12.20;;;;;;;16.26;46.69;100286.63;5003722;28;20557;-71
2021/11/08 10:13:08;;;;;;;29.23;11.18;;;;;;;15.91;47.44;100297.72;5004129;28;20108;-71
2021/11/08 10:15:35;;;;;;;28.40;9.18;;;;;;;15.41;48.73;100299.03;5004440;28;20057;-73
2021/11/08 10:18:02;;;;;;;23.42;10.13;;;;;;;15.00;49.81;100289.09;5004488;28;20034;-72
2021/11/08 10:20:34;;;;;;;27.73;11.40;;;;;;;14.61;50.91;100290.50;5003034;28;20432;-72
2021/11/08 10:23:01;;;;;;;24.77;9.25;;;;;;;14.33;51.54;100291.19;5003832;28;20062;-73
2021/11/08 10:25:29;;;;;;;27.00;9.27;;;;;;;14.03;52.49;100294.63;5003497;28;20088;-73
2021/11/08 10:27:55;;;;;;;20.85;8.20;;;;;;;13.63;53.95;100294.13;5004060;28;20567;-71
2021/11/08 10:30:27;;;;;;;26.58;11.02;;;;;;;13.45;53.70;100301.28;5002953;28;20045;-72
2021/11/08 10:33:07;;;;;;;19.67;9.93;;;;;;;13.28;54.91;100298.66;5002334;28;20029;-73
2021/11/08 10:35:35;;;;;;;27.13;10.93;;;;;;;12.94;55.96;100294.22;5001288;28;20041;-72
2021/11/08 10:38:09;;;;;;;29.60;10.38;;;;;;;12.81;56.45;100289.53;5002005;28;20042;-72
2021/11/08 10:40:39;;;;;;;27.63;9.50;;;;;;;12.67;57.06;100287.59;5018055;28;20033;-71
2021/11/08 10:43:04;;;;;;;29.20;10.77;;;;;;;12.71;57.79;100288.31;5003252;28;20038;-73
2021/11/08 10:45:30;;;;;;;26.50;10.93;;;;;;;12.61;57.22;100282.59;5003888;28;20412;-72
2021/11/08 10:48:00;;;;;;;33.25;11.77;;;;;;;12.55;57.80;100285.56;4986360;28;20129;-72
2021/11/08 10:50:27;;;;;;;26.88;11.25;;;;;;;12.33;57.50;100280.47;5002432;28;20401;-72
2021/11/08 10:53:01;;;;;;;24.38;10.68;;;;;;;12.35;57.81;100277.75;5003496;28;20033;-72
2021/11/08 10:55:32;;;;;;;29.70;12.18;;;;;;;12.32;58.24;100272.59;5003383;28;20077;-72
2021/11/08 10:58:16;;;;;;;29.15;11.95;;;;;;;12.29;58.51;100270.97;5006471;28;20026;-72
2021/11/08 11:00:53;;;;;;;29.60;10.73;;;;;;;12.30;58.14;100267.38;5021889;28;20029;-71
2021/11/08 11:03:21;;;;;;;28.73;12.13;;;;;;;12.28;58.88;100269.28;5022687;28;20202;-71
2021/11/08 11:05:53;;;;;;;35.67;13.05;;;;;;;12.30;58.38;100270.03;5022745;28;20125;-71
2021/11/08 11:08:19;;;;;;;29.88;9.60;;;;;;;12.32;58.27;100275.25;5017393;28;20045;-71
2021/11/08 11:10:55;;;;;;;20.48;8.23;;;;;;;12.41;57.96;100259.78;5014459;28;20131;-71
2021/11/08 11:13:22;;;;;;;26.48;8.57;;;;;;;12.42;56.24;100265.94;5022670;28;20037;-71
2021/11/08 11:15:49;;;;;;;24.25;8.30;;;;;;;12.49;56.96;100267.34;5022008;28;20037;-71
2021/11/08 11:18:16;;;;;;;20.38;7.82;;;;;;;12.50;56.37;100268.19;5022751;28;20025;-71
2021/11/08 11:20:44;;;;;;;27.13;7.93;;;;;;;12.50;56.76;100268.19;5021407;28;20091;-71
2021/11/08 11:23:19;;;;;;;19.88;6.60;;;;;;;12.49;56.78;100264.69;5022921;28;20121;-72
2021/11/08 11:25:53;;;;;;;25.42;7.65;;;;;;;12.47;57.41;100277.13;5021993;28;20033;-71
2021/11/08 11:28:26;;;;;;;43.03;12.30;;;;;;;12.59;57.95;100275.69;5027831;28;20047;-71
2021/11/08 11:30:51;;;;;;;40.03;9.23;;;;;;;12.63;56.77;100274.59;5025165;28;20033;-71
2021/11/08 11:33:23;;;;;;;27.50;8.05;;;;;;;12.71;55.82;100271.56;5023839;28;20041;-70
2021/11/08 11:35:51;;;;;;;18.83;7.20;;;;;;;12.72;55.49;100276.78;5023989;28;20460;-70
2021/11/08 11:38:25;;;;;;;27.15;8.18;;;;;;;12.63;55.56;100271.97;5022980;28;20042;-71
2021/11/08 11:40:58;;;;;;;29.38;8.05;;;;;;;12.57;56.81;100273.09;5025695;28;20448;-71
2021/11/08 11:43:35;;;;;;;30.85;7.38;;;;;;;12.56;56.55;100268.75;5023747;28;20086;-71
2021/11/08 11:46:01;;;;;;;34.75;7.88;;;;;;;12.42;56.48;100260.66;5022231;28;20037;-71
2021/11/08 11:48:30;;;;;;;34.20;9.48;;;;;;;12.37;56.09;100266.16;5020936;28;20054;-71
2021/11/08 11:50:56;;;;;;;27.10;8.35;;;;;;;12.37;56.54;100267.94;5021484;28;20036;-72
2021/11/08 11:53:24;;;;;;;30.95;10.32;;;;;;;12.39;56.26;100260.81;5021812;28;20042;-69
2021/11/08 11:55:51;;;;;;;30.95;8.32;;;;;;;12.38;56.68;100264.34;5021372;28;20044;-71
2021/11/08 11:58:16;;;;;;;21.80;7.90;;;;;;;12.22;56.11;100265.13;5023479;28;20277;-71
2021/11/08 12:00:45;;;;;;;27.05;7.40;;;;;;;12.15;56.49;100263.69;5021129;28;20659;-71
2021/11/08 12:03:11;;;;;;;22.35;7.80;;;;;;;12.12;55.95;100263.84;5022051;28;20040;-71
2021/11/08 12:05:37;;;;;;;27.05;6.47;;;;;;;12.16;56.33;100259.28;5021283;28;20033;-70
2021/11/08 12:08:06;;;;;;;20.05;6.60;;;;;;;12.11;56.24;100261.28;5021365;28;20037;-70
2021/11/08 12:10:32;;;;;;;18.00;6.28;;;;;;;11.98;56.26;100253.94;5021199;28;20084;-71
2021/11/08 12:12:58;;;;;;;25.48;6.75;;;;;;;11.78;56.94;100257.47;5020028;28;20671;-71
2021/11/08 12:15:30;;;;;;;21.95;6.90;;;;;;;11.72;57.58;100257.78;5022186;28;20141;-71
2021/11/08 12:18:08;;;;;;;32.20;7.78;;;;;;;11.64;57.44;100252.00;5020517;28;20048;-71
2021/11/08 12:20:42;;;;;;;27.67;7.88;;;;;;;11.61;57.80;100257.41;5015938;28;20639;-71
2021/11/08 12:23:14;;;;;;;22.80;8.18;;;;;;;11.57;58.37;100264.63;5020188;28;20036;-73
2021/11/08 12:25:44;;;;;;;21.13;6.38;;;;;;;11.56;58.28;100259.41;5022674;28;20152;-71
2021/11/08 12:28:14;;;;;;;18.92;7.20;;;;;;;11.50;58.45;100254.41;5022125;28;20104;-71
2021/11/08 12:30:45;;;;;;;33.75;9.45;;;;;;;11.44;58.98;100257.31;5019425;28;20037;-71
2021/11/08 12:33:30;;;;;;;22.17;8.00;;;;;;;11.38;59.43;100258.47;5021753;28;20033;-71
2021/11/08 12:36:18;;;;;;;40.78;9.98;;;;;;;11.32;59.58;100262.25;5021145;28;20091;-70
2021/11/08 12:38:56;;;;;;;26.80;7.07;;;;;;;11.27;59.71;100258.06;5007605;28;20033;-71
2021/11/08 12:41:30;;;;;;;23.92;6.95;;;;;;;11.23;60.11;100261.78;5020028;28;20509;-69
2021/11/08 12:44:02;;;;;;;23.35;6.80;;;;;;;11.16;60.39;100262.03;5021289;28;20512;-71
2021/11/08 12:46:35;;;;;;;26.88;8.77;;;;;;;11.15;60.50;100262.97;5005455;28;20744;-72
2021/11/08 12:49:21;;;;;;;20.70;8.00;;;;;;;11.11;61.05;100258.75;5020871;28;20357;-71
2021/11/08 12:51:57;;;;;;;33.45;8.73;;;;;;;11.05;60.99;100268.72;5020112;28;20167;-71
2021/11/08 12:54:25;;;;;;;22.92;8.73;;;;;;;10.98;61.56;100267.25;5004766;28;20154;-71
2021/11/08 12:56:51;;;;;;;23.40;7.35;;;;;;;10.93;61.44;100267.47;5020840;28;20052;-70
2021/11/08 12:59:23;;;;;;;25.23;9.50;;;;;;;10.89;60.07;100268.53;5021841;28;20037;-70
2021/11/08 13:02:00;;;;;;;28.95;7.53;;;;;;;10.87;60.38;100270.38;5023194;28;20717;-70
2021/11/08 13:04:40;;;;;;;23.98;7.80;;;;;;;10.86;59.92;100258.97;5019115;28;20069;-71